createdAt,value
2023-03-17T00:00:22.179Z,75.61
2023-03-17T00:02:49.907Z,75.77
2023-03-17T00:05:17.675Z,75.82
2023-03-17T00:07:45.408Z,76.02
2023-03-17T00:10:20.444Z,76.52
2023-03-17T00:12:47.052Z,76.42
2023-03-17T00:17:56.502Z,76.53
2023-03-17T00:20:25.495Z,76.53
2023-03-17T00:22:52.406Z,76.19
2023-03-17T00:26:30.161Z,77.10
2023-03-17T00:28:56.989Z,76.74
2023-03-17T00:31:41.335Z,76.57
2023-03-17T00:34:11.593Z,77.10
2023-03-17T00:36:38.163Z,77.22
2023-03-17T00:41:39.374Z,77.65
2023-03-17T00:44:05.893Z,77.88
2023-03-17T00:49:19.383Z,79.17
2023-03-17T00:51:46.268Z,78.84
2023-03-17T00:54:14.215Z,79.39
2023-03-17T00:56:41.785Z,79.63
2023-03-17T01:06:12.726Z,79.90
2023-03-17T01:08:40.664Z,79.97
2023-03-17T01:11:07.491Z,80.19
2023-03-17T01:15:58.326Z,80.67
2023-03-17T01:18:24.936Z,80.04
2023-03-17T01:20:51.602Z,80.60
2023-03-17T01:23:18.273Z,80.39
2023-03-17T01:25:45.545Z,80.77
2023-03-17T01:28:13.683Z,81.33
2023-03-17T01:30:40.654Z,81.33
2023-03-17T01:33:08.631Z,80.95
2023-03-17T01:35:36.878Z,80.80
2023-03-17T01:38:03.975Z,81.04
2023-03-17T01:40:35.101Z,80.09
2023-03-17T01:43:08.379Z,80.86
2023-03-17T01:45:53.505Z,80.94
2023-03-17T01:48:20.235Z,80.94
2023-03-17T01:50:48.404Z,80.88
2023-03-17T01:53:15.524Z,81.61
2023-03-17T01:55:43.697Z,81.48
2023-03-17T01:58:10.506Z,82.10
2023-03-17T02:00:37.055Z,82.63
2023-03-17T02:03:04.381Z,82.73
2023-03-17T02:05:31.631Z,82.53
2023-03-17T02:07:58.791Z,81.91
2023-03-17T02:10:26.398Z,82.03
2023-03-17T02:12:55.554Z,82.80
2023-03-17T02:15:22.310Z,82.66
2023-03-17T02:17:49.652Z,82.09
2023-03-17T02:20:16.172Z,81.95
2023-03-17T02:22:44.020Z,81.87
2023-03-17T02:25:10.627Z,81.82
2023-03-17T02:27:39.593Z,82.21
2023-03-17T02:30:08.055Z,82.64
2023-03-17T02:32:48.573Z,82.44
2023-03-17T02:35:15.598Z,82.98
2023-03-17T02:37:43.745Z,82.54
2023-03-17T02:40:11.462Z,82.74
2023-03-17T02:42:39.402Z,82.28
2023-03-17T02:45:07.188Z,82.84
2023-03-17T02:47:33.721Z,82.49
2023-03-17T02:50:00.242Z,82.61
2023-03-17T02:55:08.387Z,82.79
2023-03-17T02:57:34.940Z,82.85
2023-03-17T03:00:01.565Z,83.41
2023-03-17T03:02:28.102Z,83.49
2023-03-17T03:04:54.709Z,83.61
2023-03-17T03:07:21.236Z,84.11
2023-03-17T03:09:47.814Z,84.07
2023-03-17T03:12:14.382Z,83.60
2023-03-17T03:14:41.089Z,83.88
2023-03-17T03:17:07.653Z,83.92
2023-03-17T03:19:34.166Z,83.56
2023-03-17T03:22:00.868Z,83.76
2023-03-17T03:24:28.043Z,84.02
2023-03-17T03:26:54.565Z,84.23
2023-03-17T03:29:21.169Z,84.52
2023-03-17T03:31:48.809Z,84.37
2023-03-17T03:34:15.467Z,84.03
2023-03-17T03:36:42.258Z,84.86
2023-03-17T03:39:09.798Z,85.19
2023-03-17T03:41:36.540Z,85.50
2023-03-17T03:44:03.062Z,85.45
2023-03-17T03:46:29.681Z,85.15
2023-03-17T03:48:56.295Z,85.77
2023-03-17T03:51:22.829Z,85.56
2023-03-17T03:54:03.281Z,85.27
2023-03-17T03:56:29.864Z,85.63
2023-03-17T03:58:57.242Z,86.26
2023-03-17T04:01:24.672Z,86.62
2023-03-17T04:03:51.398Z,86.55
2023-03-17T04:06:17.983Z,86.76
2023-03-17T04:08:44.556Z,86.85
2023-03-17T04:11:11.350Z,87.02
2023-03-17T04:13:38.877Z,87.18
2023-03-17T04:16:05.607Z,87.75
2023-03-17T04:19:23.781Z,87.71
2023-03-17T04:21:52.838Z,88.09
2023-03-17T04:24:20.286Z,87.85
2023-03-17T04:26:46.886Z,87.85
2023-03-17T04:30:34.770Z,88.44
2023-03-17T04:33:01.435Z,88.67
2023-03-17T04:35:28.068Z,88.46
2023-03-17T04:37:54.640Z,88.53
2023-03-17T04:40:21.256Z,88.55
2023-03-17T04:45:26.635Z,89.19
2023-03-17T04:47:53.130Z,88.82
2023-03-17T04:50:19.728Z,88.42
2023-03-17T04:52:46.397Z,89.21
2023-03-17T04:55:12.960Z,88.91
2023-03-17T04:57:39.540Z,89.27
2023-03-17T05:00:07.287Z,89.14
2023-03-17T05:02:33.917Z,88.26
2023-03-17T05:05:00.499Z,88.04
2023-03-17T05:07:27.032Z,88.48
2023-03-17T05:09:53.571Z,89.28
2023-03-17T05:12:20.154Z,88.90
2023-03-17T05:14:47.238Z,88.94
2023-03-17T05:17:14.038Z,88.58
2023-03-17T05:19:40.833Z,88.52
2023-03-17T05:22:07.403Z,88.91
2023-03-17T05:24:33.924Z,89.14
2023-03-17T05:27:00.476Z,88.45
2023-03-17T05:29:27.040Z,88.39
2023-03-17T05:31:54.005Z,87.57
2023-03-17T05:34:20.526Z,88.48
2023-03-17T05:36:47.054Z,88.15
2023-03-17T05:41:52.793Z,88.35
2023-03-17T05:44:20.476Z,88.80
2023-03-17T05:46:47.642Z,89.82
2023-03-17T05:49:14.278Z,90.42
2023-03-17T05:51:41.954Z,90.92
2023-03-17T05:54:08.840Z,90.85
2023-03-17T05:56:35.449Z,90.49
2023-03-17T05:59:02.380Z,91.06
2023-03-17T06:01:29.637Z,91.48
2023-03-17T06:03:56.180Z,91.48
2023-03-17T06:06:23.453Z,90.42
2023-03-17T06:08:50.044Z,89.90
2023-03-17T06:11:18.236Z,90.00
2023-03-17T06:13:44.700Z,91.08
2023-03-17T06:16:11.362Z,90.31
2023-03-17T06:18:37.911Z,88.35
2023-03-17T06:21:05.280Z,85.86
2023-03-17T06:23:31.844Z,83.09
2023-03-17T06:25:58.345Z,82.51
2023-03-17T06:28:24.869Z,81.95
2023-03-17T06:30:51.460Z,81.18
2023-03-17T06:33:19.245Z,78.15
2023-03-17T06:35:46.082Z,75.72
2023-03-17T06:38:13.597Z,75.77
2023-03-17T06:40:40.395Z,73.14
2023-03-17T06:43:07.867Z,73.17
2023-03-17T06:45:34.823Z,73.12
2023-03-17T06:48:02.456Z,71.40
2023-03-17T06:50:29.129Z,71.00
2023-03-17T06:52:56.055Z,70.80
2023-03-17T06:55:22.629Z,68.55
2023-03-17T06:57:51.060Z,69.01
2023-03-17T07:00:18.214Z,67.48
2023-03-17T07:02:44.717Z,65.90
2023-03-17T07:05:12.740Z,66.44
2023-03-17T07:07:39.617Z,66.82
2023-03-17T07:10:07.069Z,65.11
2023-03-17T07:12:34.356Z,64.29
2023-03-17T07:15:01.432Z,65.53
2023-03-17T07:17:28.202Z,66.92
2023-03-17T07:19:54.743Z,67.39
2023-03-17T07:22:21.305Z,65.89
2023-03-17T07:24:49.288Z,64.79
2023-03-17T07:27:16.552Z,63.49
2023-03-17T07:29:43.170Z,63.07
2023-03-17T07:32:10.418Z,64.15
2023-03-17T07:34:37.532Z,65.03
2023-03-17T07:37:18.149Z,64.06
2023-03-17T07:39:44.840Z,62.98
2023-03-17T07:42:14.871Z,61.73
2023-03-17T07:44:41.775Z,61.52
2023-03-17T07:49:47.738Z,61.80
2023-03-17T07:52:14.793Z,61.04
2023-03-17T07:54:43.186Z,60.71
2023-03-17T07:57:09.853Z,61.88
2023-03-17T07:59:36.530Z,59.21
2023-03-17T08:03:48.313Z,58.84
2023-03-17T08:06:14.905Z,59.71
2023-03-17T08:08:41.849Z,58.47
2023-03-17T08:11:08.368Z,58.18
2023-03-17T08:13:35.098Z,57.29
2023-03-17T08:16:02.001Z,57.47
2023-03-17T08:18:28.631Z,58.50
2023-03-17T08:20:55.452Z,59.91
2023-03-17T08:23:22.568Z,57.19
2023-03-17T08:28:29.403Z,55.45
2023-03-17T08:31:05.663Z,55.87
2023-03-17T08:33:32.452Z,55.63
2023-03-17T08:35:59.166Z,51.78
2023-03-17T08:38:26.016Z,51.53
2023-03-17T08:40:52.566Z,50.61
2023-03-17T08:43:19.174Z,50.74
2023-03-17T08:45:45.780Z,49.97
2023-03-17T08:48:12.391Z,50.49
2023-03-17T08:50:39.047Z,50.02
2023-03-17T08:53:05.565Z,49.44
2023-03-17T08:55:32.056Z,46.49
2023-03-17T08:57:58.612Z,45.74
2023-03-17T09:00:25.086Z,44.04
2023-03-17T09:02:51.718Z,44.71
2023-03-17T09:05:18.486Z,43.66
2023-03-17T09:07:45.212Z,43.22
2023-03-17T09:10:13.746Z,43.45
2023-03-17T09:12:40.630Z,42.59
2023-03-17T09:15:07.845Z,42.29
2023-03-17T09:17:34.825Z,42.86
2023-03-17T09:22:40.956Z,41.39
2023-03-17T09:25:07.678Z,37.90
2023-03-17T09:27:34.186Z,38.55
2023-03-17T09:30:00.712Z,40.35
2023-03-17T09:32:27.457Z,38.55
2023-03-17T09:34:54.014Z,40.24
2023-03-17T09:37:20.530Z,39.46
2023-03-17T09:39:47.238Z,40.11
2023-03-17T09:42:33.467Z,39.44
2023-03-17T09:45:00.003Z,39.59
2023-03-17T09:47:42.938Z,40.99
2023-03-17T09:50:13.098Z,39.85
2023-03-17T09:52:39.757Z,39.06
2023-03-17T09:55:08.656Z,39.08
2023-03-17T09:57:36.423Z,40.11
2023-03-17T10:00:07.667Z,38.53
2023-03-17T10:02:37.514Z,39.07
2023-03-17T10:05:22.036Z,38.49
2023-03-17T10:07:57.733Z,38.26
2023-03-17T10:10:39.526Z,38.57
2023-03-17T10:13:14.839Z,39.51
2023-03-17T10:15:47.696Z,39.26
2023-03-17T10:18:15.425Z,38.72
2023-03-17T10:20:47.721Z,38.81
2023-03-17T10:23:17.254Z,37.77
2023-03-17T10:25:43.861Z,39.12
2023-03-17T10:28:29.938Z,37.03
2023-03-17T10:31:16.743Z,38.42
2023-03-17T10:34:50.863Z,37.52
2023-03-17T10:37:19.469Z,37.70
2023-03-17T10:39:51.239Z,37.26
2023-03-17T10:42:25.728Z,37.64
2023-03-17T10:44:57.002Z,37.38
2023-03-17T10:47:31.837Z,37.93
2023-03-17T10:50:00.287Z,36.67
2023-03-17T10:52:28.050Z,37.47
2023-03-17T10:54:54.749Z,37.70
2023-03-17T10:57:21.564Z,36.89
2023-03-17T10:59:53.404Z,38.95
2023-03-17T11:02:36.876Z,37.43
2023-03-17T11:05:04.969Z,37.81
2023-03-17T11:07:38.218Z,36.94
2023-03-17T11:10:14.822Z,38.29
2023-03-17T11:13:43.919Z,35.87
2023-03-17T11:16:18.672Z,35.54
2023-03-17T11:18:48.438Z,37.54
2023-03-17T11:22:05.530Z,36.12
2023-03-17T11:24:33.846Z,37.62
2023-03-17T11:27:23.670Z,35.96
2023-03-17T11:30:10.577Z,35.26
2023-03-17T11:32:37.792Z,35.41
2023-03-17T11:35:19.616Z,34.94
2023-03-17T11:37:46.466Z,37.06
2023-03-17T11:40:18.666Z,35.51
2023-03-17T11:43:04.156Z,36.53
2023-03-17T11:45:38.257Z,36.79
2023-03-17T11:48:10.745Z,36.62
2023-03-17T11:50:43.519Z,37.51
2023-03-17T11:53:16.749Z,35.52
2023-03-17T11:55:46.337Z,36.60
2023-03-17T11:58:33.748Z,36.25
2023-03-17T12:01:01.006Z,35.45
2023-03-17T12:03:34.372Z,35.00
2023-03-17T12:06:05.528Z,35.42
2023-03-17T12:11:18.227Z,36.28
2023-03-17T12:13:47.778Z,35.42
2023-03-17T12:16:17.566Z,35.33
2023-03-17T12:18:53.461Z,36.60
2023-03-17T12:21:25.711Z,36.53
2023-03-17T12:23:55.269Z,35.66
2023-03-17T12:26:28.431Z,36.52
2023-03-17T12:29:14.158Z,36.01
2023-03-17T12:32:13.209Z,36.47
2023-03-17T12:34:39.809Z,35.71
2023-03-17T12:37:07.767Z,37.32
2023-03-17T12:39:35.004Z,36.27
2023-03-17T12:42:18.574Z,37.95
2023-03-17T12:44:54.128Z,36.82
2023-03-17T12:47:23.378Z,36.38
2023-03-17T12:49:58.751Z,36.49
2023-03-17T12:52:44.290Z,37.43
2023-03-17T12:55:15.781Z,37.25
2023-03-17T12:57:46.609Z,37.03
2023-03-17T13:00:24.580Z,37.52
2023-03-17T13:03:06.207Z,37.49
2023-03-17T13:05:33.599Z,37.18
2023-03-17T13:08:02.436Z,38.85
2023-03-17T13:10:37.823Z,37.35
2023-03-17T13:13:06.937Z,37.96
2023-03-17T13:15:38.224Z,37.69
2023-03-17T13:20:18.312Z,38.02
2023-03-17T13:23:03.604Z,38.47
2023-03-17T13:25:33.541Z,38.39
2023-03-17T13:28:12.820Z,38.48
2023-03-17T13:30:39.461Z,37.68
2023-03-17T13:33:12.111Z,37.93
2023-03-17T13:35:47.854Z,38.97
2023-03-17T13:38:33.192Z,38.63
2023-03-17T13:41:08.994Z,38.35
2023-03-17T13:43:54.271Z,38.00
2023-03-17T13:46:32.606Z,38.63
2023-03-17T13:49:02.269Z,37.74
2023-03-17T13:51:33.742Z,38.67
2023-03-17T13:54:09.292Z,38.85
2023-03-17T13:56:42.003Z,38.27
2023-03-17T13:59:15.625Z,38.40
2023-03-17T14:01:48.186Z,39.94
2023-03-17T14:04:22.995Z,38.04
2023-03-17T14:08:27.599Z,37.60
2023-03-17T14:11:00.753Z,38.70
2023-03-17T14:13:48.712Z,38.92
2023-03-17T14:16:21.499Z,38.25
2023-03-17T14:18:50.494Z,39.40
2023-03-17T14:21:24.476Z,38.24
2023-03-17T14:23:58.094Z,38.47
2023-03-17T14:26:26.616Z,38.42
2023-03-17T14:28:53.559Z,38.62
2023-03-17T14:31:24.678Z,38.21
2023-03-17T14:33:53.074Z,38.06
2023-03-17T14:36:20.053Z,37.43
2023-03-17T14:38:48.159Z,38.16
2023-03-17T14:41:14.666Z,37.82
2023-03-17T14:43:42.715Z,38.31
2023-03-17T14:46:24.406Z,37.59
2023-03-17T14:48:52.558Z,36.42
2023-03-17T14:51:31.428Z,36.84
2023-03-17T14:54:00.173Z,36.26
2023-03-17T14:56:31.489Z,36.60
2023-03-17T14:59:04.954Z,38.89
2023-03-17T15:01:39.790Z,38.86
2023-03-17T15:04:16.265Z,38.18
2023-03-17T15:06:48.646Z,39.06
2023-03-17T15:10:51.378Z,39.46
2023-03-17T15:13:17.908Z,39.52
2023-03-17T15:15:44.787Z,40.37
2023-03-17T15:18:13.385Z,40.61
2023-03-17T15:20:42.390Z,39.17
2023-03-17T15:23:22.278Z,39.87
2023-03-17T15:25:51.427Z,40.17
2023-03-17T15:28:19.118Z,40.64
2023-03-17T15:30:50.474Z,41.81
2023-03-17T15:33:21.989Z,42.47
2023-03-17T15:35:49.434Z,43.30
2023-03-17T15:38:16.768Z,42.77
2023-03-17T15:40:43.328Z,43.18
2023-03-17T15:43:16.771Z,43.01
2023-03-17T15:45:44.852Z,42.98
2023-03-17T15:48:20.519Z,43.30
2023-03-17T15:50:48.241Z,46.16
2023-03-17T15:53:14.756Z,45.78
2023-03-17T15:55:41.334Z,46.31
2023-03-17T15:58:07.882Z,46.26
2023-03-17T16:00:34.832Z,47.26
2023-03-17T16:03:06.560Z,47.70
2023-03-17T16:05:34.543Z,47.83
2023-03-17T16:08:01.583Z,48.42
2023-03-17T16:10:29.688Z,48.70
2023-03-17T16:12:56.522Z,48.64
2023-03-17T16:15:27.941Z,49.12
2023-03-17T16:17:55.777Z,49.29
2023-03-17T16:20:24.291Z,50.06
2023-03-17T16:22:51.972Z,49.99
2023-03-17T16:25:21.561Z,49.42
2023-03-17T16:27:48.694Z,51.66
2023-03-17T16:30:16.651Z,52.93
2023-03-17T16:32:43.272Z,52.04
2023-03-17T16:35:30.248Z,52.35
2023-03-17T16:37:56.969Z,51.99
2023-03-17T16:40:28.606Z,52.16
2023-03-17T16:42:55.421Z,51.92
2023-03-17T16:45:27.580Z,52.50
2023-03-17T16:47:54.785Z,53.37
2023-03-17T16:50:22.736Z,54.00
2023-03-17T16:52:49.270Z,54.43
2023-03-17T16:55:16.928Z,54.53
2023-03-17T16:57:45.535Z,55.30
2023-03-17T17:00:17.277Z,55.76
2023-03-17T17:02:45.171Z,56.27
2023-03-17T17:05:16.263Z,56.00
2023-03-17T17:07:42.768Z,56.60
2023-03-17T17:10:11.099Z,57.08
2023-03-17T17:12:37.677Z,56.78
2023-03-17T17:15:26.424Z,58.28
2023-03-17T17:18:13.130Z,58.34
2023-03-17T17:20:40.509Z,58.25
2023-03-17T17:24:11.291Z,58.45
2023-03-17T17:26:37.971Z,58.21
2023-03-17T17:29:04.529Z,59.52
2023-03-17T17:31:31.162Z,59.58
2023-03-17T17:33:57.698Z,59.91
2023-03-17T17:36:42.780Z,59.37
2023-03-17T17:39:10.641Z,59.95
2023-03-17T17:41:37.180Z,59.99
2023-03-17T17:44:03.860Z,61.05
2023-03-17T17:46:30.425Z,62.16
2023-03-17T17:48:57.424Z,62.97
2023-03-17T17:51:24.090Z,63.65
2023-03-17T17:53:51.758Z,63.47
2023-03-17T17:56:18.291Z,64.34
2023-03-17T17:58:45.108Z,65.07
2023-03-17T18:01:14.494Z,65.75
2023-03-17T18:03:42.921Z,65.82
2023-03-17T18:06:09.619Z,66.16
2023-03-17T18:08:36.163Z,66.54
2023-03-17T18:11:02.719Z,66.37
2023-03-17T18:13:29.324Z,66.33
2023-03-17T18:15:55.891Z,67.00
2023-03-17T18:18:22.426Z,67.98
2023-03-17T18:20:49.172Z,68.17
2023-03-17T18:23:29.695Z,67.37
2023-03-17T18:26:00.476Z,68.08
2023-03-17T18:28:27.036Z,67.84
2023-03-17T18:30:54.096Z,68.51
2023-03-17T18:33:21.067Z,68.08
2023-03-17T18:35:48.860Z,68.36
2023-03-17T18:38:15.487Z,69.73
2023-03-17T18:40:42.414Z,70.10
2023-03-17T18:43:08.975Z,69.77
2023-03-17T18:45:35.727Z,70.21
2023-03-17T18:48:02.374Z,70.32
2023-03-17T18:50:28.913Z,70.14
2023-03-17T18:52:56.081Z,71.04
2023-03-17T18:55:22.788Z,70.87
2023-03-17T18:57:49.357Z,71.73
2023-03-17T19:02:55.119Z,72.06
2023-03-17T19:05:21.727Z,71.62
2023-03-17T19:07:48.279Z,71.99
2023-03-17T19:10:14.920Z,73.72
2023-03-17T19:12:42.544Z,73.02
2023-03-17T19:15:10.726Z,73.40
2023-03-17T19:17:37.280Z,72.78
2023-03-17T19:20:04.139Z,73.10
2023-03-17T19:22:30.690Z,73.47
2023-03-17T19:24:57.209Z,73.14
2023-03-17T19:27:24.055Z,72.88
2023-03-17T19:29:50.598Z,73.19
2023-03-17T19:32:17.318Z,72.97
2023-03-17T19:34:43.904Z,73.18
2023-03-17T19:37:10.526Z,74.23
2023-03-17T19:39:37.825Z,74.41
2023-03-17T19:42:04.436Z,74.48
2023-03-17T19:44:30.985Z,74.38
2023-03-17T19:46:57.539Z,74.48
2023-03-17T19:49:24.110Z,74.49
2023-03-17T19:51:50.620Z,74.22
2023-03-17T19:54:18.802Z,73.85
2023-03-17T19:56:45.813Z,74.70
2023-03-17T19:59:12.470Z,74.61
2023-03-17T20:01:39.130Z,74.98
2023-03-17T20:04:07.142Z,75.63
2023-03-17T20:06:34.770Z,75.25
2023-03-17T20:09:03.995Z,76.17
2023-03-17T20:11:33.974Z,75.58
2023-03-17T20:14:01.294Z,75.41
2023-03-17T20:16:28.094Z,75.71
2023-03-17T20:18:54.646Z,75.42
2023-03-17T20:21:21.245Z,75.09
2023-03-17T20:23:47.811Z,75.74
2023-03-17T20:28:51.727Z,78.12
2023-03-17T20:31:18.707Z,77.03
2023-03-17T20:35:28.233Z,76.42
2023-03-17T20:37:57.214Z,76.99
2023-03-17T20:40:24.232Z,76.95
2023-03-17T20:42:50.869Z,77.35
2023-03-17T20:45:17.816Z,77.23
2023-03-17T20:47:44.520Z,77.64
2023-03-17T20:50:13.150Z,77.52
2023-03-17T20:52:41.099Z,76.91
2023-03-17T20:55:09.400Z,77.06
2023-03-17T20:57:36.297Z,78.92
2023-03-17T21:00:03.504Z,78.71
2023-03-17T21:02:30.124Z,80.17
2023-03-17T21:04:56.944Z,80.18
2023-03-17T21:07:23.510Z,80.79
2023-03-17T21:09:51.737Z,80.68
2023-03-17T21:13:59.859Z,80.87
2023-03-17T21:16:28.132Z,81.09
2023-03-17T21:18:54.974Z,81.02
2023-03-17T21:21:21.849Z,80.93
2023-03-17T21:23:48.440Z,81.20
2023-03-17T21:26:15.291Z,81.12
2023-03-17T21:28:42.498Z,80.23
2023-03-17T21:31:10.210Z,80.54
2023-03-17T21:33:36.824Z,80.71
2023-03-17T21:36:03.570Z,80.97
2023-03-17T21:38:31.116Z,81.52
2023-03-17T21:43:38.503Z,82.80
2023-03-17T21:46:05.521Z,83.59
2023-03-17T21:48:32.104Z,82.98
2023-03-17T21:50:58.583Z,83.74
2023-03-17T21:53:26.193Z,83.68
2023-03-17T21:55:52.972Z,83.32
2023-03-17T21:58:21.317Z,83.58
2023-03-17T22:00:48.944Z,83.56
2023-03-17T22:03:15.672Z,83.56
2023-03-17T22:05:42.385Z,82.84
2023-03-17T22:08:09.376Z,83.78
2023-03-17T22:10:35.897Z,84.16
2023-03-17T22:13:02.374Z,84.87
2023-03-17T22:18:09.666Z,84.90
2023-03-17T22:20:36.396Z,84.84
2023-03-17T22:23:03.442Z,85.38
2023-03-17T22:25:29.969Z,85.31
2023-03-17T22:27:57.117Z,85.30
2023-03-17T22:30:23.748Z,85.01
2023-03-17T22:32:51.134Z,85.84
2023-03-17T22:35:19.656Z,86.18
2023-03-17T22:37:46.538Z,86.02
2023-03-17T22:40:13.214Z,86.20
2023-03-17T22:42:39.755Z,85.62
2023-03-17T22:45:06.518Z,85.78
2023-03-17T22:47:33.081Z,85.76
2023-03-17T22:49:59.625Z,86.12
2023-03-17T22:52:26.219Z,86.41
2023-03-17T22:54:52.709Z,86.61
2023-03-17T22:57:19.229Z,86.02
2023-03-17T22:59:45.805Z,85.96
2023-03-17T23:02:12.318Z,85.36
2023-03-17T23:04:38.847Z,86.56
2023-03-17T23:07:05.611Z,87.04
2023-03-17T23:09:32.832Z,87.30
2023-03-17T23:12:00.591Z,87.49
2023-03-17T23:14:27.255Z,86.96
2023-03-17T23:16:53.849Z,86.93
2023-03-17T23:19:20.495Z,86.63
2023-03-17T23:21:47.392Z,87.46
2023-03-17T23:24:13.906Z,87.79
2023-03-17T23:26:40.452Z,87.91
2023-03-17T23:29:08.494Z,88.31
2023-03-17T23:34:14.386Z,88.96
2023-03-17T23:36:40.936Z,89.42
2023-03-17T23:39:08.100Z,89.16
2023-03-17T23:41:34.668Z,89.38
2023-03-17T23:44:01.167Z,89.12
2023-03-17T23:46:28.494Z,88.81
2023-03-17T23:48:55.026Z,88.78
2023-03-17T23:51:22.424Z,88.72
2023-03-17T23:53:50.588Z,88.56
2023-03-17T23:56:17.502Z,89.22
2023-03-17T23:58:44.077Z,89.17
